ADDS METAR Data INFO
IDs: Format: Raw Decoded Include TAF

Data at: 0315 UTC 20 Jul 2018

KSSI 191630Z AUTO 08004KT 10SM FEW024 SCT029 SCT050 30/23 A2995 RMK AO2 LTG DSNT N-E T03000233
KSSI 191609Z AUTO 27005KT 10SM VCTS SCT024 SCT031 BKN050 29/23 A2995 RMK AO2 LTG DSNT N AND E AND SW T02940233
KSSI 191556Z AUTO 22008KT 190V260 10SM VCTS FEW020 BKN025 BKN031 30/23 A2995 RMK AO2 LTG DSNT E AND SW T03000233
KSSI 191553Z AUTO 22008KT 10SM SCT023 SCT031 31/23 A2994 RMK AO2 LTG DSNT E AND SW SLP141 T03060233
KSSI 191512Z AUTO 18008KT 10SM SCT021 BKN033 BKN043 29/23 A2996 RMK AO2 LTG DSNT E T02940233
KSSI 191453Z AUTO 14007KT 10SM BKN019 BKN027 BKN110 29/24 A2996 RMK AO2 LTG DSNT E AND SE SLP147 T02940239 55002
KSSI 191449Z AUTO VRB06KT 10SM BKN019 BKN110 29/24 A2996 RMK AO2 LTG DSNT SE
KSSI 191404Z AUTO 21009KT 170V230 10SM FEW015 BKN039 29/24 A2997 RMK AO2 LTG DSNT NE AND E T02940239
KSSI 191353Z AUTO 23010KT 10SM VCTS BKN041 BKN070 29/23 A2996 RMK AO2 LTG DSNT E SLP148 T02890233
KSSI 191349Z AUTO 22008KT 10SM VCTS BKN041 BKN070 29/23 A2997 RMK AO2 LTG DSNT E
KSSI 191253Z AUTO 21009KT 10SM FEW120 28/23 A2996 RMK AO2 SLP147 T02830233
KSSI 191153Z AUTO 21005KT 10SM CLR 27/23 A2995 RMK AO2 SLP142 T02720233 10272 20261 51008
KSSI 191053Z AUTO 21005KT 10SM CLR 27/23 A2994 RMK AO2 SLP140 T02670233
KSSI 190953Z AUTO 20005KT 10SM CLR 27/23 A2993 RMK AO2 SLP136 T02670233
KSSI 190853Z AUTO 22008KT 10SM CLR 27/23 A2992 RMK AO2 SLP133 T02670233 55006
KSSI 190753Z AUTO 21008KT 10SM CLR 27/23 A2991 RMK AO2 SLP129 T02670233
KSSI 190653Z AUTO 23008KT 10SM CLR 27/23 A2992 RMK AO2 SLP132 T02720228
KSSI 190553Z AUTO 22008KT 10SM CLR 27/23 A2994 RMK AO2 SLP139 T02720228 10306 20272 50003
KSSI 190453Z AUTO 24006KT 10SM CLR 27/23 A2994 RMK AO2 SLP141 T02720233 403440256
KSSI 190353Z AUTO 23009KT 10SM CLR 28/23 A2994 RMK AO2 SLP139 T02780233
KSSI 190253Z AUTO 22011KT 10SM CLR 28/23 A2993 RMK AO2 SLP136 T02830228 51015
KSSI 190153Z AUTO 22009KT 10SM CLR 28/23 A2992 RMK AO2 SLP134 T02830228
KSSI 190053Z AUTO 23011KT 10SM CLR 29/22 A2991 RMK AO2 SLP129 T02940222
KSSI 182353Z AUTO 21010G24KT 10SM CLR 31/23 A2989 RMK AO2 SLP121 T03060228 10344 20306 58003
KSSI 182253Z AUTO 20008KT 10SM FEW120 32/23 A2991 RMK AO2 SLP131 T03170233
KSSI 182153Z AUTO 17010G19KT 10SM FEW095 32/23 A2989 RMK AO2 SLP122 T03220233
KSSI 182053Z AUTO 18009KT 10SM FEW055 FEW075 32/24 A2990 RMK AO2 LTG DSNT NE SLP125 T03220239 58018
KSSI 181953Z AUTO 22009KT 10SM FEW080 34/22 A2992 RMK AO2 SLP132 T03440217
KSSI 181853Z AUTO 22011G18KT 10SM CLR 34/22 A2993 RMK AO2 SLP136 T03440222
KSSI 181753Z AUTO 23007KT 10SM CLR 33/23 A2995 RMK AO2 SLP143 T03330228 10333 20261 58015
KSSI 181653Z AUTO 24008KT 10SM SCT036 32/23 A2996 RMK AO2 SLP148 T03220228
KSSI 181553Z AUTO 25007G14KT 10SM CLR 32/23 A2999 RMK AO2 SLP156 T03220233